createdAt,value
2022-11-17T00:00:42.360Z,10.10
2022-11-17T00:03:14.521Z,10.20
2022-11-17T00:05:42.540Z,10.30
2022-11-17T00:08:11.857Z,10.30
2022-11-17T00:10:39.923Z,10.30
2022-11-17T00:13:25.413Z,10.30
2022-11-17T00:15:53.383Z,10.30
2022-11-17T00:18:38.970Z,10.40
2022-11-17T00:21:21.056Z,10.40
2022-11-17T00:23:51.109Z,10.40
2022-11-17T00:26:21.519Z,10.50
2022-11-17T00:28:53.264Z,10.40
2022-11-17T00:31:39.340Z,10.60
2022-11-17T00:34:07.603Z,10.50
2022-11-17T00:36:39.540Z,10.60
2022-11-17T00:39:10.343Z,10.60
2022-11-17T00:41:38.506Z,10.60
2022-11-17T00:44:06.993Z,10.60
2022-11-17T00:46:37.079Z,10.70
2022-11-17T00:49:05.528Z,10.60
2022-11-17T00:51:34.038Z,10.60
2022-11-17T00:54:02.763Z,10.50
2022-11-17T00:56:32.638Z,10.50
2022-11-17T00:59:00.716Z,10.50
2022-11-17T01:01:30.080Z,10.60
2022-11-17T01:04:04.008Z,10.80
2022-11-17T01:06:34.634Z,10.80
2022-11-17T01:09:04.692Z,10.90
2022-11-17T01:11:34.305Z,10.70
2022-11-17T01:14:02.941Z,10.80
2022-11-17T01:16:32.719Z,10.80
2022-11-17T01:19:02.424Z,10.70
2022-11-17T01:21:32.902Z,10.70
2022-11-17T01:24:02.371Z,10.80
2022-11-17T01:26:34.348Z,10.60
2022-11-17T01:29:05.008Z,10.60
2022-11-17T01:31:38.183Z,10.50
2022-11-17T01:34:06.577Z,10.60
2022-11-17T01:36:57.849Z,10.40
2022-11-17T01:39:26.978Z,10.40
2022-11-17T01:41:58.813Z,10.30
2022-11-17T01:45:02.972Z,10.30
2022-11-17T01:47:40.434Z,10.40
2022-11-17T01:50:19.527Z,10.30
2022-11-17T01:52:50.200Z,10.30
2022-11-17T01:55:20.737Z,10.10
2022-11-17T01:57:57.589Z,10.00
2022-11-17T02:00:25.732Z,10.00
2022-11-17T02:02:54.193Z,10.00
2022-11-17T02:05:33.927Z,9.90
2022-11-17T02:08:06.301Z,10.00
2022-11-17T02:10:36.283Z,10.10
2022-11-17T02:13:06.206Z,10.00
2022-11-17T02:15:34.196Z,10.20
2022-11-17T02:18:02.965Z,10.10
2022-11-17T02:20:48.404Z,10.00
2022-11-17T02:24:01.465Z,10.00
2022-11-17T02:27:19.031Z,10.00
2022-11-17T02:30:01.524Z,9.90
2022-11-17T02:32:40.464Z,9.70
2022-11-17T02:35:17.466Z,9.70
2022-11-17T02:37:54.956Z,9.90
2022-11-17T02:40:28.029Z,10.10
2022-11-17T02:43:29.776Z,10.20
2022-11-17T02:46:04.550Z,10.20
2022-11-17T02:48:36.990Z,10.10
2022-11-17T02:51:07.760Z,10.10
2022-11-17T02:53:37.022Z,10.00
2022-11-17T02:56:06.078Z,10.10
2022-11-17T02:58:34.082Z,10.10
2022-11-17T03:01:25.012Z,10.20
2022-11-17T03:04:13.350Z,10.20
2022-11-17T03:06:52.828Z,10.10
2022-11-17T03:09:32.201Z,10.00
2022-11-17T03:12:06.320Z,10.00
2022-11-17T03:14:45.982Z,10.10
2022-11-17T03:17:21.633Z,10.10
2022-11-17T03:19:59.447Z,10.00
2022-11-17T03:22:35.215Z,10.10
2022-11-17T03:25:07.665Z,10.10
2022-11-17T03:27:39.079Z,10.10
2022-11-17T03:30:10.361Z,10.10
2022-11-17T03:32:42.298Z,10.00
2022-11-17T03:35:14.137Z,10.00
2022-11-17T03:37:47.334Z,10.00
2022-11-17T03:40:19.776Z,10.00
2022-11-17T03:42:53.891Z,9.90
2022-11-17T03:45:25.914Z,9.90
2022-11-17T03:48:01.485Z,10.00
2022-11-17T03:50:34.644Z,9.90
2022-11-17T03:53:04.587Z,10.10
2022-11-17T03:55:42.990Z,10.20
2022-11-17T03:58:16.466Z,10.10
2022-11-17T04:00:45.786Z,10.00
2022-11-17T04:03:16.373Z,9.90
2022-11-17T04:05:46.351Z,10.10
2022-11-17T04:08:14.353Z,10.10
2022-11-17T04:10:56.245Z,10.20
2022-11-17T04:13:42.043Z,10.10
2022-11-17T04:16:10.690Z,10.00
2022-11-17T04:18:40.023Z,10.00
2022-11-17T04:21:10.922Z,10.10
2022-11-17T04:23:38.970Z,10.20
2022-11-17T04:26:24.376Z,10.30
2022-11-17T04:28:52.437Z,10.50
2022-11-17T04:31:23.837Z,10.40
2022-11-17T04:33:55.689Z,10.50
2022-11-17T04:36:26.684Z,10.50
2022-11-17T04:38:56.857Z,10.50
2022-11-17T04:41:44.345Z,10.50
2022-11-17T04:44:14.870Z,10.60
2022-11-17T04:46:44.320Z,10.60
2022-11-17T04:49:14.798Z,10.60
2022-11-17T04:51:43.228Z,10.60
2022-11-17T04:54:14.950Z,10.50
2022-11-17T04:56:43.113Z,10.50
2022-11-17T04:59:11.410Z,10.50
2022-11-17T05:01:39.726Z,10.40
2022-11-17T05:04:09.778Z,10.60
2022-11-17T05:06:41.063Z,10.80
2022-11-17T05:09:11.319Z,10.60
2022-11-17T05:11:57.481Z,10.70
2022-11-17T05:14:29.054Z,10.50
2022-11-17T05:17:10.558Z,10.40
2022-11-17T05:19:41.624Z,10.40
2022-11-17T05:22:30.391Z,10.50
2022-11-17T05:24:59.057Z,10.50
2022-11-17T05:27:27.414Z,10.60
2022-11-17T05:30:00.025Z,10.60
2022-11-17T05:32:27.991Z,10.40
2022-11-17T05:34:55.961Z,10.50
2022-11-17T05:37:25.300Z,10.50
2022-11-17T05:39:53.236Z,10.30
2022-11-17T05:42:21.268Z,10.50
2022-11-17T05:44:49.325Z,10.60
2022-11-17T05:47:19.076Z,10.70
2022-11-17T05:49:47.056Z,10.70
2022-11-17T05:52:16.216Z,10.50
2022-11-17T05:54:45.516Z,10.50
2022-11-17T05:57:26.030Z,10.50
2022-11-17T06:00:01.618Z,10.50
2022-11-17T06:02:34.314Z,10.60
2022-11-17T06:05:03.545Z,10.60
2022-11-17T06:07:31.788Z,10.70
2022-11-17T06:10:01.170Z,10.60
2022-11-17T06:12:29.206Z,10.80
2022-11-17T06:14:57.207Z,11.00
2022-11-17T06:17:32.272Z,11.00
2022-11-17T06:20:06.148Z,10.70
2022-11-17T06:22:34.814Z,10.70
2022-11-17T06:25:06.904Z,10.60
2022-11-17T06:27:37.053Z,10.60
2022-11-17T06:30:07.436Z,10.60
2022-11-17T06:32:38.418Z,10.70
2022-11-17T06:35:08.628Z,10.90
2022-11-17T06:37:36.917Z,10.90
2022-11-17T06:40:07.605Z,11.00
2022-11-17T06:42:53.281Z,10.90
2022-11-17T06:45:21.284Z,10.90
2022-11-17T06:47:49.229Z,11.00
2022-11-17T06:50:18.216Z,10.80
2022-11-17T06:52:46.260Z,10.90
2022-11-17T06:55:15.812Z,10.80
2022-11-17T06:57:46.583Z,10.90
2022-11-17T07:00:20.280Z,11.00
2022-11-17T07:02:48.486Z,11.20
2022-11-17T07:05:16.655Z,11.20
2022-11-17T07:07:44.771Z,11.20
2022-11-17T07:10:12.784Z,11.20
2022-11-17T07:12:42.226Z,11.00
2022-11-17T07:15:11.472Z,10.90
2022-11-17T07:17:39.550Z,10.80
2022-11-17T07:20:10.449Z,10.80
2022-11-17T07:22:38.654Z,10.90
2022-11-17T07:25:07.474Z,10.80
2022-11-17T07:27:36.048Z,11.00
2022-11-17T07:30:10.689Z,11.00
2022-11-17T07:32:38.741Z,11.00
2022-11-17T07:35:08.083Z,11.10
2022-11-17T07:37:36.145Z,11.10
2022-11-17T07:40:04.633Z,11.20
2022-11-17T07:42:32.819Z,11.00
2022-11-17T07:45:00.924Z,11.00
2022-11-17T07:47:34.848Z,11.00
2022-11-17T07:50:05.280Z,11.10
2022-11-17T07:52:37.320Z,11.10
2022-11-17T07:55:09.989Z,11.10
2022-11-17T07:57:39.232Z,11.20
2022-11-17T08:00:09.133Z,11.30
2022-11-17T08:02:38.752Z,11.20
2022-11-17T08:05:07.845Z,11.30
2022-11-17T08:07:36.019Z,11.30
2022-11-17T08:10:04.675Z,11.20
2022-11-17T08:12:32.706Z,11.10
2022-11-17T08:15:00.764Z,11.00
2022-11-17T08:17:30.423Z,11.00
2022-11-17T08:19:59.932Z,11.00
2022-11-17T08:22:28.015Z,11.30
2022-11-17T08:24:56.110Z,11.00
2022-11-17T08:27:24.181Z,11.00
2022-11-17T08:29:52.188Z,11.20
2022-11-17T08:32:20.243Z,11.30
2022-11-17T08:34:49.482Z,11.20
2022-11-17T08:37:18.865Z,11.20
2022-11-17T08:39:46.907Z,11.10
2022-11-17T08:42:14.957Z,11.20
2022-11-17T08:44:43.042Z,11.10
2022-11-17T08:47:11.101Z,11.10
2022-11-17T08:49:39.165Z,11.20
2022-11-17T08:52:07.456Z,11.20
2022-11-17T08:54:37.121Z,11.20
2022-11-17T08:57:05.254Z,11.40
2022-11-17T08:59:33.319Z,11.60
2022-11-17T09:02:01.388Z,11.60
2022-11-17T09:04:29.444Z,11.60
2022-11-17T09:06:57.590Z,11.60
2022-11-17T09:09:25.887Z,11.60
2022-11-17T09:11:55.337Z,11.70
2022-11-17T09:14:23.362Z,11.80
2022-11-17T09:16:51.426Z,11.90
2022-11-17T09:19:19.515Z,12.10
2022-11-17T09:21:47.545Z,12.10
2022-11-17T09:24:15.854Z,12.00
2022-11-17T09:26:44.592Z,12.20
2022-11-17T09:29:14.947Z,12.30
2022-11-17T09:31:43.136Z,12.20
2022-11-17T09:34:11.315Z,12.40
2022-11-17T09:36:39.423Z,12.60
2022-11-17T09:39:07.517Z,12.60
2022-11-17T09:41:45.406Z,12.80
2022-11-17T09:44:29.269Z,13.10
2022-11-17T09:47:11.448Z,13.10
2022-11-17T09:49:53.730Z,13.10
2022-11-17T09:52:32.311Z,13.30
2022-11-17T09:55:04.226Z,13.20
2022-11-17T09:57:39.086Z,13.20
2022-11-17T10:00:16.268Z,13.20
2022-11-17T10:02:48.725Z,13.40
2022-11-17T10:05:21.833Z,13.50
2022-11-17T10:07:52.807Z,13.80
2022-11-17T10:10:29.050Z,14.00
2022-11-17T10:12:59.292Z,13.90
2022-11-17T10:15:31.927Z,13.90
2022-11-17T10:17:59.935Z,13.90
2022-11-17T10:20:27.990Z,13.80
2022-11-17T10:22:57.192Z,13.60
2022-11-17T10:25:39.102Z,13.80
2022-11-17T10:28:27.127Z,13.70
2022-11-17T10:31:00.170Z,13.60
2022-11-17T10:33:38.683Z,13.40
2022-11-17T10:36:16.243Z,13.30
2022-11-17T10:38:46.514Z,13.30
2022-11-17T10:41:21.702Z,13.30
2022-11-17T10:44:03.470Z,13.40
2022-11-17T10:46:45.001Z,13.50
2022-11-17T10:49:27.041Z,13.40
2022-11-17T10:52:06.986Z,13.60
2022-11-17T10:54:36.724Z,13.70
2022-11-17T10:57:09.449Z,13.70
2022-11-17T10:59:45.883Z,13.40
2022-11-17T11:02:30.413Z,13.50
2022-11-17T11:05:11.721Z,13.40
2022-11-17T11:07:40.868Z,13.50
2022-11-17T11:10:18.042Z,13.70
2022-11-17T11:12:51.656Z,14.00
2022-11-17T11:15:24.291Z,14.30
2022-11-17T11:17:53.855Z,14.40
2022-11-17T11:20:34.529Z,14.40
2022-11-17T11:23:10.596Z,14.40
2022-11-17T11:25:49.147Z,14.50
2022-11-17T11:28:39.009Z,14.50
2022-11-17T11:31:19.820Z,14.30
2022-11-17T11:33:55.332Z,14.30
2022-11-17T11:36:36.836Z,14.40
2022-11-17T11:39:17.363Z,14.20
2022-11-17T11:42:07.539Z,14.10
2022-11-17T11:45:02.360Z,13.80
2022-11-17T11:47:51.275Z,13.80
2022-11-17T11:50:25.408Z,13.90
2022-11-17T11:53:00.689Z,13.80
2022-11-17T11:55:34.914Z,13.90
2022-11-17T11:58:13.110Z,13.80
2022-11-17T12:00:43.010Z,14.00
2022-11-17T12:03:22.073Z,14.10
2022-11-17T12:06:24.975Z,14.20
2022-11-17T12:09:14.542Z,14.60
2022-11-17T12:12:02.048Z,14.90
2022-11-17T12:14:32.518Z,14.60
2022-11-17T12:17:08.137Z,14.70
2022-11-17T12:19:57.220Z,14.90
2022-11-17T12:22:57.692Z,15.20
2022-11-17T12:25:30.404Z,15.00
2022-11-17T12:27:58.670Z,14.90
2022-11-17T12:30:56.557Z,15.10
2022-11-17T12:33:25.531Z,15.00
2022-11-17T12:36:30.812Z,14.90
2022-11-17T12:39:02.100Z,14.80
2022-11-17T12:42:08.185Z,14.60
2022-11-17T12:45:06.541Z,14.70
2022-11-17T12:47:37.224Z,14.60
2022-11-17T12:50:35.746Z,14.40
2022-11-17T12:53:42.605Z,14.20
2022-11-17T12:56:38.585Z,14.00
2022-11-17T12:59:45.992Z,13.80
2022-11-17T13:02:31.198Z,13.50
2022-11-17T13:05:04.533Z,13.20
2022-11-17T13:07:32.638Z,13.10
2022-11-17T13:10:02.693Z,13.20
2022-11-17T13:12:34.207Z,13.40
2022-11-17T13:15:05.725Z,13.30
2022-11-17T13:17:36.334Z,13.30
2022-11-17T13:20:16.682Z,13.40
2022-11-17T13:22:44.934Z,13.50
2022-11-17T13:25:23.514Z,13.30
2022-11-17T13:27:58.360Z,13.20
2022-11-17T13:30:28.912Z,13.30
2022-11-17T13:32:59.299Z,13.30
2022-11-17T13:35:29.441Z,13.50
2022-11-17T13:38:06.541Z,13.50
2022-11-17T13:40:36.591Z,13.70
2022-11-17T13:43:07.390Z,13.80
2022-11-17T13:45:35.527Z,13.80
2022-11-17T13:48:03.524Z,13.80
2022-11-17T13:50:38.795Z,13.80
2022-11-17T13:53:25.628Z,13.90
2022-11-17T13:55:54.608Z,13.60
2022-11-17T13:58:32.622Z,13.60
2022-11-17T14:01:00.922Z,13.30
2022-11-17T14:03:37.835Z,13.20
2022-11-17T14:06:09.134Z,13.20
2022-11-17T14:08:39.157Z,13.10
2022-11-17T14:11:16.714Z,13.30
2022-11-17T14:13:48.365Z,13.40
2022-11-17T14:16:27.219Z,13.40
2022-11-17T14:19:02.428Z,13.20
2022-11-17T14:21:34.118Z,13.00
2022-11-17T14:24:13.026Z,13.10
2022-11-17T14:26:44.824Z,12.90
2022-11-17T14:29:14.994Z,12.90
2022-11-17T14:31:43.489Z,12.90
2022-11-17T14:34:11.629Z,13.10
2022-11-17T14:36:41.265Z,13.00
2022-11-17T14:39:18.224Z,12.90
2022-11-17T14:41:48.686Z,12.80
2022-11-17T14:44:18.422Z,12.60
2022-11-17T14:46:46.468Z,12.60
2022-11-17T14:49:14.772Z,12.50
2022-11-17T14:51:42.942Z,12.50
2022-11-17T14:54:11.007Z,12.70
2022-11-17T14:56:39.133Z,12.80
2022-11-17T14:59:08.219Z,12.60
2022-11-17T15:01:38.549Z,12.60
2022-11-17T15:04:43.111Z,12.50
2022-11-17T15:06:57.035Z,12.50
2022-11-17T15:09:25.157Z,12.40
2022-11-17T15:11:53.221Z,12.30
2022-11-17T15:14:21.263Z,12.30
2022-11-17T15:16:50.679Z,12.40
2022-11-17T15:19:18.896Z,12.40
2022-11-17T15:21:46.998Z,12.20
2022-11-17T15:24:15.553Z,12.30
2022-11-17T15:26:44.422Z,12.10
2022-11-17T15:29:15.898Z,12.10
2022-11-17T15:31:44.452Z,12.20
2022-11-17T15:34:18.709Z,12.20
2022-11-17T15:36:48.375Z,12.20
2022-11-17T15:39:16.879Z,12.10
2022-11-17T15:41:45.619Z,12.10
2022-11-17T15:44:14.102Z,12.00
2022-11-17T15:46:47.084Z,11.70
2022-11-17T15:49:17.910Z,11.50
2022-11-17T15:51:46.479Z,11.20
2022-11-17T15:54:20.284Z,11.00
2022-11-17T15:56:49.205Z,10.80
2022-11-17T15:59:17.455Z,10.80
2022-11-17T16:01:46.564Z,10.90
2022-11-17T16:04:17.202Z,10.80
2022-11-17T16:06:47.403Z,10.50
2022-11-17T16:09:17.154Z,10.60
2022-11-17T16:11:45.819Z,10.60
2022-11-17T16:14:14.780Z,10.50
2022-11-17T16:16:43.673Z,10.40
2022-11-17T16:19:11.727Z,10.40
2022-11-17T16:21:41.109Z,10.40
2022-11-17T16:24:12.905Z,10.60
2022-11-17T16:26:40.916Z,10.50
2022-11-17T16:29:09.213Z,10.40
2022-11-17T16:31:38.713Z,10.50
2022-11-17T16:34:08.495Z,10.50
2022-11-17T16:36:41.631Z,10.50
2022-11-17T16:39:16.569Z,10.50
2022-11-17T16:41:46.537Z,10.40
2022-11-17T16:44:16.758Z,10.20
2022-11-17T16:46:46.636Z,10.20
2022-11-17T16:49:17.420Z,10.00
2022-11-17T16:51:51.430Z,10.00
2022-11-17T16:54:20.776Z,9.80
2022-11-17T16:56:49.287Z,9.80
2022-11-17T16:59:17.617Z,9.70
2022-11-17T17:01:46.164Z,9.60
2022-11-17T17:04:14.746Z,9.60
2022-11-17T17:06:45.071Z,9.50
2022-11-17T17:09:16.175Z,9.40
2022-11-17T17:11:44.533Z,9.40
2022-11-17T17:14:15.439Z,9.60
2022-11-17T17:16:44.311Z,9.50
2022-11-17T17:19:15.059Z,9.30
2022-11-17T17:21:44.116Z,9.00
2022-11-17T17:24:12.368Z,9.10
2022-11-17T17:26:43.477Z,9.10
2022-11-17T17:29:12.589Z,9.30
2022-11-17T17:31:42.662Z,9.40
2022-11-17T17:34:13.479Z,9.30
2022-11-17T17:36:41.502Z,9.10
2022-11-17T17:39:10.002Z,9.00
2022-11-17T17:41:43.739Z,9.00
2022-11-17T17:44:19.327Z,8.80
2022-11-17T17:46:48.840Z,8.70
2022-11-17T17:49:18.848Z,8.70
2022-11-17T17:51:47.458Z,8.50
2022-11-17T17:54:17.974Z,8.30
2022-11-17T17:56:48.387Z,8.40
2022-11-17T17:59:19.256Z,8.60
2022-11-17T18:01:48.120Z,8.50
2022-11-17T18:04:17.359Z,8.60
2022-11-17T18:06:48.288Z,8.70
2022-11-17T18:09:19.501Z,8.60
2022-11-17T18:11:51.149Z,8.50
2022-11-17T18:14:24.115Z,8.40
2022-11-17T18:16:53.089Z,8.40
2022-11-17T18:19:21.468Z,8.50
2022-11-17T18:21:49.675Z,8.50
2022-11-17T18:24:19.026Z,8.70
2022-11-17T18:26:47.227Z,8.50
2022-11-17T18:29:19.598Z,8.40
2022-11-17T18:31:49.429Z,8.40
2022-11-17T18:34:20.942Z,8.10
2022-11-17T18:36:52.196Z,7.90
2022-11-17T18:39:21.219Z,7.90
2022-11-17T18:41:49.731Z,7.80
2022-11-17T18:44:20.295Z,7.90
2022-11-17T18:46:48.931Z,8.00
2022-11-17T18:49:17.464Z,7.90
2022-11-17T18:51:46.132Z,7.80
2022-11-17T18:54:14.802Z,8.00
2022-11-17T18:56:44.463Z,8.10
2022-11-17T18:59:12.723Z,8.20
2022-11-17T19:01:44.045Z,8.20
2022-11-17T19:04:14.057Z,8.20
2022-11-17T19:06:42.339Z,8.10
2022-11-17T19:09:11.010Z,8.20
2022-11-17T19:11:39.090Z,8.40
2022-11-17T19:14:07.504Z,8.30
2022-11-17T19:16:42.647Z,8.30
2022-11-17T19:19:15.177Z,8.40
2022-11-17T19:21:45.028Z,8.60
2022-11-17T19:24:13.665Z,8.50
2022-11-17T19:26:42.756Z,8.60
2022-11-17T19:29:16.553Z,8.50
2022-11-17T19:31:46.100Z,8.60
2022-11-17T19:34:15.874Z,8.60
2022-11-17T19:36:44.548Z,8.70
2022-11-17T19:39:13.746Z,8.60
2022-11-17T19:41:42.415Z,8.60
2022-11-17T19:44:10.771Z,8.50
2022-11-17T19:46:39.000Z,8.70
2022-11-17T19:49:08.791Z,8.70
2022-11-17T19:51:38.549Z,8.70
2022-11-17T19:54:09.663Z,8.70
2022-11-17T19:56:38.412Z,8.80
2022-11-17T19:59:10.953Z,8.90
2022-11-17T20:01:40.605Z,8.70
2022-11-17T20:04:08.969Z,8.60
2022-11-17T20:06:40.955Z,8.60
2022-11-17T20:09:11.550Z,8.50
2022-11-17T20:11:40.271Z,8.50
2022-11-17T20:14:08.857Z,8.50
2022-11-17T20:16:38.618Z,8.60
2022-11-17T20:19:06.741Z,8.50
2022-11-17T20:21:34.821Z,8.50
2022-11-17T20:24:04.534Z,8.50
2022-11-17T20:26:35.158Z,8.40
2022-11-17T20:29:03.227Z,8.50
2022-11-17T20:31:33.962Z,8.50
2022-11-17T20:34:05.161Z,8.40
2022-11-17T20:36:35.443Z,8.20
2022-11-17T20:39:07.350Z,8.50
2022-11-17T20:41:35.647Z,8.50
2022-11-17T20:44:04.145Z,8.50
2022-11-17T20:46:32.421Z,8.40
2022-11-17T20:49:00.952Z,8.50
2022-11-17T20:51:29.023Z,8.50
2022-11-17T20:53:57.071Z,8.30
2022-11-17T20:56:26.514Z,8.30
2022-11-17T20:58:54.543Z,8.40
2022-11-17T21:01:23.988Z,8.50
2022-11-17T21:03:52.415Z,8.40
2022-11-17T21:06:22.899Z,8.40
2022-11-17T21:08:52.253Z,8.30
2022-11-17T21:11:40.174Z,8.40
2022-11-17T21:14:11.960Z,8.20
2022-11-17T21:16:42.083Z,7.80
2022-11-17T21:19:13.682Z,7.60
2022-11-17T21:21:41.891Z,7.60
2022-11-17T21:24:11.291Z,7.50
2022-11-17T21:26:39.487Z,7.60
2022-11-17T21:29:08.850Z,7.50
2022-11-17T21:31:38.218Z,7.60
2022-11-17T21:34:07.619Z,7.60
2022-11-17T21:36:36.679Z,7.60
2022-11-17T21:39:05.582Z,7.60
2022-11-17T21:41:37.755Z,7.90
2022-11-17T21:44:14.988Z,8.00
2022-11-17T21:46:43.081Z,8.00
2022-11-17T21:49:11.162Z,8.10
2022-11-17T21:51:39.278Z,8.20
2022-11-17T21:54:09.654Z,8.30
2022-11-17T21:56:38.149Z,8.50
2022-11-17T21:59:12.589Z,8.70
2022-11-17T22:01:41.402Z,8.50
2022-11-17T22:04:09.543Z,8.50
2022-11-17T22:06:39.837Z,8.40
2022-11-17T22:09:07.976Z,8.40
2022-11-17T22:11:36.705Z,8.60
2022-11-17T22:14:11.871Z,8.50
2022-11-17T22:16:41.945Z,8.50
2022-11-17T22:19:10.945Z,8.70
2022-11-17T22:21:40.163Z,8.80
2022-11-17T22:24:11.553Z,8.60
2022-11-17T22:26:41.432Z,8.70
2022-11-17T22:29:14.949Z,8.60
2022-11-17T22:31:44.555Z,8.60
2022-11-17T22:34:12.664Z,8.80
2022-11-17T22:36:41.074Z,8.80
2022-11-17T22:39:10.056Z,8.70
2022-11-17T22:41:38.202Z,8.60
2022-11-17T22:44:07.318Z,8.70
2022-11-17T22:46:36.766Z,8.60
2022-11-17T22:49:04.806Z,8.60
2022-11-17T22:51:50.674Z,8.90
2022-11-17T22:54:18.770Z,8.90
2022-11-17T22:56:46.855Z,8.90
2022-11-17T22:59:15.214Z,8.70
2022-11-17T23:01:44.795Z,8.50
2022-11-17T23:04:13.999Z,8.30
2022-11-17T23:06:42.050Z,8.10
2022-11-17T23:09:10.587Z,8.00
2022-11-17T23:11:39.484Z,7.80
2022-11-17T23:14:10.650Z,7.80
2022-11-17T23:16:40.242Z,8.00
2022-11-17T23:19:13.416Z,7.90
2022-11-17T23:21:41.880Z,8.00
2022-11-17T23:24:12.613Z,8.00
2022-11-17T23:26:40.989Z,7.90
2022-11-17T23:29:10.222Z,7.90
2022-11-17T23:31:38.308Z,7.80
2022-11-17T23:34:06.566Z,7.80
2022-11-17T23:36:35.970Z,7.90
2022-11-17T23:39:04.250Z,8.00
2022-11-17T23:41:32.356Z,8.10
2022-11-17T23:44:00.591Z,8.10
2022-11-17T23:46:28.620Z,8.00
2022-11-17T23:48:57.065Z,8.10
2022-11-17T23:51:29.811Z,8.10
2022-11-17T23:54:01.412Z,8.10
2022-11-17T23:56:33.553Z,8.00
2022-11-17T23:59:01.813Z,8.10
